sensor_id;sensor_type;location;lat;lon;timestamp;temperature;humidity
17178;DHT22;8704;52.006;4.374;2023-06-10T00:00:00;21.70;1.00
17178;DHT22;8704;52.006;4.374;2023-06-10T00:02:32;21.60;1.00
17178;DHT22;8704;52.006;4.374;2023-06-10T00:05:00;21.60;1.00
17178;DHT22;8704;52.006;4.374;2023-06-10T00:07:28;21.60;1.00
17178;DHT22;8704;52.006;4.374;2023-06-10T00:09:57;21.50;1.00
17178;DHT22;8704;52.006;4.374;2023-06-10T00:12:26;21.60;1.00
17178;DHT22;8704;52.006;4.374;2023-06-10T00:14:55;21.40;1.00
17178;DHT22;8704;52.006;4.374;2023-06-10T00:17:23;21.30;1.00
17178;DHT22;8704;52.006;4.374;2023-06-10T00:19:51;21.20;1.00
17178;DHT22;8704;52.006;4.374;2023-06-10T00:22:19;21.30;1.00
17178;DHT22;8704;52.006;4.374;2023-06-10T00:24:48;21.50;1.00
17178;DHT22;8704;52.006;4.374;2023-06-10T00:27:18;21.20;1.00
17178;DHT22;8704;52.006;4.374;2023-06-10T00:29:46;21.10;1.00
17178;DHT22;8704;52.006;4.374;2023-06-10T00:32:14;21.10;1.00
17178;DHT22;8704;52.006;4.374;2023-06-10T00:34:42;21.00;1.00
17178;DHT22;8704;52.006;4.374;2023-06-10T00:37:10;21.10;1.00
17178;DHT22;8704;52.006;4.374;2023-06-10T00:39:38;21.00;1.00
17178;DHT22;8704;52.006;4.374;2023-06-10T00:42:07;21.00;1.00
17178;DHT22;8704;52.006;4.374;2023-06-10T00:44:38;20.90;1.00
17178;DHT22;8704;52.006;4.374;2023-06-10T00:47:07;20.90;1.00
17178;DHT22;8704;52.006;4.374;2023-06-10T00:49:35;20.80;1.00
17178;DHT22;8704;52.006;4.374;2023-06-10T00:52:05;20.70;1.00
17178;DHT22;8704;52.006;4.374;2023-06-10T00:54:34;20.70;1.00
17178;DHT22;8704;52.006;4.374;2023-06-10T00:57:02;20.60;1.00
17178;DHT22;8704;52.006;4.374;2023-06-10T00:59:30;20.60;1.00
17178;DHT22;8704;52.006;4.374;2023-06-10T01:02:00;20.60;1.00
17178;DHT22;8704;52.006;4.374;2023-06-10T01:04:29;20.60;1.00
17178;DHT22;8704;52.006;4.374;2023-06-10T01:07:03;20.50;1.00
17178;DHT22;8704;52.006;4.374;2023-06-10T01:09:38;20.50;1.00
17178;DHT22;8704;52.006;4.374;2023-06-10T01:12:14;20.40;1.00
17178;DHT22;8704;52.006;4.374;2023-06-10T01:14:45;20.40;1.00
17178;DHT22;8704;52.006;4.374;2023-06-10T01:17:14;20.30;1.00
17178;DHT22;8704;52.006;4.374;2023-06-10T01:19:52;20.30;1.00
17178;DHT22;8704;52.006;4.374;2023-06-10T01:22:23;20.20;1.00
17178;DHT22;8704;52.006;4.374;2023-06-10T01:24:52;20.20;1.00
17178;DHT22;8704;52.006;4.374;2023-06-10T01:27:22;20.20;1.00
17178;DHT22;8704;52.006;4.374;2023-06-10T01:29:56;20.20;1.00
17178;DHT22;8704;52.006;4.374;2023-06-10T01:32:29;20.10;1.00
17178;DHT22;8704;52.006;4.374;2023-06-10T01:35:02;20.10;1.00
17178;DHT22;8704;52.006;4.374;2023-06-10T01:37:33;20.00;1.00
17178;DHT22;8704;52.006;4.374;2023-06-10T01:40:02;20.00;1.00
17178;DHT22;8704;52.006;4.374;2023-06-10T01:42:32;19.90;1.00
17178;DHT22;8704;52.006;4.374;2023-06-10T01:45:00;19.90;1.00
17178;DHT22;8704;52.006;4.374;2023-06-10T01:47:29;19.80;1.00
17178;DHT22;8704;52.006;4.374;2023-06-10T01:49:57;19.80;1.00
17178;DHT22;8704;52.006;4.374;2023-06-10T01:52:25;19.80;1.00
17178;DHT22;8704;52.006;4.374;2023-06-10T01:54:54;19.70;1.00
17178;DHT22;8704;52.006;4.374;2023-06-10T01:57:22;19.70;1.00
17178;DHT22;8704;52.006;4.374;2023-06-10T01:59:50;19.70;1.00
17178;DHT22;8704;52.006;4.374;2023-06-10T02:02:18;20.00;1.00
17178;DHT22;8704;52.006;4.374;2023-06-10T02:04:48;19.60;1.00
17178;DHT22;8704;52.006;4.374;2023-06-10T02:07:16;19.60;1.00
17178;DHT22;8704;52.006;4.374;2023-06-10T02:09:45;19.50;1.00
17178;DHT22;8704;52.006;4.374;2023-06-10T02:12:14;19.50;1.00
17178;DHT22;8704;52.006;4.374;2023-06-10T02:14:44;19.50;1.00
17178;DHT22;8704;52.006;4.374;2023-06-10T02:17:11;19.40;1.00
17178;DHT22;8704;52.006;4.374;2023-06-10T02:19:41;19.40;1.00
17178;DHT22;8704;52.006;4.374;2023-06-10T02:22:10;19.40;1.00
17178;DHT22;8704;52.006;4.374;2023-06-10T02:24:38;19.30;1.00
17178;DHT22;8704;52.006;4.374;2023-06-10T02:27:06;19.30;1.00
17178;DHT22;8704;52.006;4.374;2023-06-10T02:29:35;19.30;1.00
17178;DHT22;8704;52.006;4.374;2023-06-10T02:32:04;19.60;1.00
17178;DHT22;8704;52.006;4.374;2023-06-10T02:34:36;19.20;1.00
17178;DHT22;8704;52.006;4.374;2023-06-10T02:37:04;19.10;1.00
17178;DHT22;8704;52.006;4.374;2023-06-10T02:39:32;19.10;1.00
17178;DHT22;8704;52.006;4.374;2023-06-10T02:42:00;19.10;1.00
17178;DHT22;8704;52.006;4.374;2023-06-10T02:44:28;19.10;1.00
17178;DHT22;8704;52.006;4.374;2023-06-10T02:46:57;19.00;1.00
17178;DHT22;8704;52.006;4.374;2023-06-10T02:49:26;19.00;1.00
17178;DHT22;8704;52.006;4.374;2023-06-10T02:51:54;19.00;1.00
17178;DHT22;8704;52.006;4.374;2023-06-10T02:54:23;18.90;1.00
17178;DHT22;8704;52.006;4.374;2023-06-10T02:56:52;19.40;1.00
17178;DHT22;8704;52.006;4.374;2023-06-10T02:59:22;18.80;1.00
17178;DHT22;8704;52.006;4.374;2023-06-10T03:01:50;18.80;1.00
17178;DHT22;8704;52.006;4.374;2023-06-10T03:04:20;18.80;1.00
17178;DHT22;8704;52.006;4.374;2023-06-10T03:06:50;18.80;1.00
17178;DHT22;8704;52.006;4.374;2023-06-10T03:09:18;19.50;1.00
17178;DHT22;8704;52.006;4.374;2023-06-10T03:11:46;18.90;1.00
17178;DHT22;8704;52.006;4.374;2023-06-10T03:14:14;18.70;1.00
17178;DHT22;8704;52.006;4.374;2023-06-10T03:16:42;18.70;1.00
17178;DHT22;8704;52.006;4.374;2023-06-10T03:19:10;19.30;1.00
17178;DHT22;8704;52.006;4.374;2023-06-10T03:21:44;18.60;1.00
17178;DHT22;8704;52.006;4.374;2023-06-10T03:24:12;18.60;1.00
17178;DHT22;8704;52.006;4.374;2023-06-10T03:26:40;18.60;1.00
17178;DHT22;8704;52.006;4.374;2023-06-10T03:29:08;18.40;1.00
17178;DHT22;8704;52.006;4.374;2023-06-10T03:31:36;18.50;1.00
17178;DHT22;8704;52.006;4.374;2023-06-10T03:34:05;18.50;1.00
17178;DHT22;8704;52.006;4.374;2023-06-10T03:36:33;18.60;1.00
17178;DHT22;8704;52.006;4.374;2023-06-10T03:39:05;18.50;1.00
17178;DHT22;8704;52.006;4.374;2023-06-10T03:41:33;18.40;1.00
17178;DHT22;8704;52.006;4.374;2023-06-10T03:44:01;18.50;1.00
17178;DHT22;8704;52.006;4.374;2023-06-10T03:46:30;18.30;1.00
17178;DHT22;8704;52.006;4.374;2023-06-10T03:48:58;18.60;1.00
17178;DHT22;8704;52.006;4.374;2023-06-10T03:51:27;18.80;1.00
17178;DHT22;8704;52.006;4.374;2023-06-10T03:53:55;18.30;1.00
17178;DHT22;8704;52.006;4.374;2023-06-10T03:56:24;18.30;1.00
17178;DHT22;8704;52.006;4.374;2023-06-10T03:58:53;18.30;1.00
17178;DHT22;8704;52.006;4.374;2023-06-10T04:01:21;18.30;1.00
17178;DHT22;8704;52.006;4.374;2023-06-10T04:03:50;18.20;1.00
17178;DHT22;8704;52.006;4.374;2023-06-10T04:06:20;18.20;1.00
17178;DHT22;8704;52.006;4.374;2023-06-10T04:08:51;18.20;1.00
17178;DHT22;8704;52.006;4.374;2023-06-10T04:11:20;18.30;1.00
17178;DHT22;8704;52.006;4.374;2023-06-10T04:13:50;18.50;1.00
17178;DHT22;8704;52.006;4.374;2023-06-10T04:16:18;18.20;1.00
17178;DHT22;8704;52.006;4.374;2023-06-10T04:18:47;18.30;1.00
17178;DHT22;8704;52.006;4.374;2023-06-10T04:21:15;18.20;1.00
17178;DHT22;8704;52.006;4.374;2023-06-10T04:23:46;18.20;1.00
17178;DHT22;8704;52.006;4.374;2023-06-10T04:26:14;18.40;1.00
17178;DHT22;8704;52.006;4.374;2023-06-10T04:28:42;18.20;1.00
17178;DHT22;8704;52.006;4.374;2023-06-10T04:31:12;18.20;1.00
17178;DHT22;8704;52.006;4.374;2023-06-10T04:33:40;18.80;1.00
17178;DHT22;8704;52.006;4.374;2023-06-10T04:36:08;18.40;1.00
17178;DHT22;8704;52.006;4.374;2023-06-10T04:38:36;18.20;1.00
17178;DHT22;8704;52.006;4.374;2023-06-10T04:41:04;18.20;1.00
17178;DHT22;8704;52.006;4.374;2023-06-10T04:43:31;18.20;1.00
17178;DHT22;8704;52.006;4.374;2023-06-10T04:45:59;18.50;1.00
17178;DHT22;8704;52.006;4.374;2023-06-10T04:48:29;18.20;1.00
17178;DHT22;8704;52.006;4.374;2023-06-10T04:50:59;18.30;1.00
17178;DHT22;8704;52.006;4.374;2023-06-10T04:53:27;18.30;1.00
17178;DHT22;8704;52.006;4.374;2023-06-10T04:55:56;18.30;1.00
17178;DHT22;8704;52.006;4.374;2023-06-10T04:58:24;18.80;1.00
17178;DHT22;8704;52.006;4.374;2023-06-10T05:00:52;18.30;1.00
17178;DHT22;8704;52.006;4.374;2023-06-10T05:03:19;18.30;1.00
17178;DHT22;8704;52.006;4.374;2023-06-10T05:05:49;18.40;1.00
17178;DHT22;8704;52.006;4.374;2023-06-10T05:08:17;18.40;1.00
17178;DHT22;8704;52.006;4.374;2023-06-10T05:10:45;18.50;1.00
17178;DHT22;8704;52.006;4.374;2023-06-10T05:13:13;18.80;1.00
17178;DHT22;8704;52.006;4.374;2023-06-10T05:15:41;18.60;1.00
17178;DHT22;8704;52.006;4.374;2023-06-10T05:18:11;18.50;1.00
17178;DHT22;8704;52.006;4.374;2023-06-10T05:20:39;18.50;1.00
17178;DHT22;8704;52.006;4.374;2023-06-10T05:23:08;19.00;1.00
17178;DHT22;8704;52.006;4.374;2023-06-10T05:25:36;18.60;1.00
17178;DHT22;8704;52.006;4.374;2023-06-10T05:28:04;18.60;1.00
17178;DHT22;8704;52.006;4.374;2023-06-10T05:30:40;19.30;1.00
17178;DHT22;8704;52.006;4.374;2023-06-10T05:33:08;18.90;1.00
17178;DHT22;8704;52.006;4.374;2023-06-10T05:35:36;18.80;1.00
17178;DHT22;8704;52.006;4.374;2023-06-10T05:38:04;18.80;1.00
17178;DHT22;8704;52.006;4.374;2023-06-10T05:40:33;19.00;1.00
17178;DHT22;8704;52.006;4.374;2023-06-10T05:43:01;18.80;1.00
17178;DHT22;8704;52.006;4.374;2023-06-10T05:45:29;18.90;1.00
17178;DHT22;8704;52.006;4.374;2023-06-10T05:47:57;18.90;1.00
17178;DHT22;8704;52.006;4.374;2023-06-10T05:50:25;19.00;1.00
17178;DHT22;8704;52.006;4.374;2023-06-10T05:52:53;19.20;1.00
17178;DHT22;8704;52.006;4.374;2023-06-10T05:55:21;19.00;1.00
17178;DHT22;8704;52.006;4.374;2023-06-10T05:57:59;19.20;1.00
17178;DHT22;8704;52.006;4.374;2023-06-10T06:00:27;19.40;1.00
17178;DHT22;8704;52.006;4.374;2023-06-10T06:02:55;19.20;1.00
17178;DHT22;8704;52.006;4.374;2023-06-10T06:05:25;19.60;1.00
17178;DHT22;8704;52.006;4.374;2023-06-10T06:07:53;19.30;1.00
17178;DHT22;8704;52.006;4.374;2023-06-10T06:10:21;19.90;1.00
17178;DHT22;8704;52.006;4.374;2023-06-10T06:12:49;19.40;1.00
17178;DHT22;8704;52.006;4.374;2023-06-10T06:15:19;19.40;1.00
17178;DHT22;8704;52.006;4.374;2023-06-10T06:17:47;19.50;1.00
17178;DHT22;8704;52.006;4.374;2023-06-10T06:20:15;19.60;1.00
17178;DHT22;8704;52.006;4.374;2023-06-10T06:22:46;20.10;1.00
17178;DHT22;8704;52.006;4.374;2023-06-10T06:25:14;19.80;1.00
17178;DHT22;8704;52.006;4.374;2023-06-10T06:27:42;19.80;1.00
17178;DHT22;8704;52.006;4.374;2023-06-10T06:30:10;19.90;1.00
17178;DHT22;8704;52.006;4.374;2023-06-10T06:32:40;19.90;1.00
17178;DHT22;8704;52.006;4.374;2023-06-10T06:35:08;20.00;1.00
17178;DHT22;8704;52.006;4.374;2023-06-10T06:37:36;20.10;1.00
17178;DHT22;8704;52.006;4.374;2023-06-10T06:40:05;20.20;1.00
17178;DHT22;8704;52.006;4.374;2023-06-10T06:42:33;20.30;1.00
17178;DHT22;8704;52.006;4.374;2023-06-10T06:45:02;20.40;1.00
17178;DHT22;8704;52.006;4.374;2023-06-10T06:47:30;20.40;1.00
17178;DHT22;8704;52.006;4.374;2023-06-10T06:49:59;20.50;1.00
17178;DHT22;8704;52.006;4.374;2023-06-10T06:52:28;20.60;1.00
17178;DHT22;8704;52.006;4.374;2023-06-10T06:54:55;20.70;1.00
17178;DHT22;8704;52.006;4.374;2023-06-10T06:57:23;21.00;1.00
17178;DHT22;8704;52.006;4.374;2023-06-10T06:59:51;20.90;1.00
17178;DHT22;8704;52.006;4.374;2023-06-10T07:02:19;20.90;1.00
17178;DHT22;8704;52.006;4.374;2023-06-10T07:04:48;21.00;1.00
17178;DHT22;8704;52.006;4.374;2023-06-10T07:07:18;21.10;1.00
17178;DHT22;8704;52.006;4.374;2023-06-10T07:09:46;21.20;1.00
17178;DHT22;8704;52.006;4.374;2023-06-10T07:12:14;21.30;1.00
17178;DHT22;8704;52.006;4.374;2023-06-10T07:14:42;21.30;1.00
17178;DHT22;8704;52.006;4.374;2023-06-10T07:17:10;21.50;1.00
17178;DHT22;8704;52.006;4.374;2023-06-10T07:19:38;21.40;1.00
17178;DHT22;8704;52.006;4.374;2023-06-10T07:22:06;21.50;1.00
17178;DHT22;8704;52.006;4.374;2023-06-10T07:24:36;21.50;1.00
17178;DHT22;8704;52.006;4.374;2023-06-10T07:27:05;21.70;1.00
17178;DHT22;8704;52.006;4.374;2023-06-10T07:29:33;21.80;1.00
17178;DHT22;8704;52.006;4.374;2023-06-10T07:32:03;21.80;1.00
17178;DHT22;8704;52.006;4.374;2023-06-10T07:34:31;21.90;1.00
17178;DHT22;8704;52.006;4.374;2023-06-10T07:36:59;22.00;1.00
17178;DHT22;8704;52.006;4.374;2023-06-10T07:39:27;22.10;1.00
17178;DHT22;8704;52.006;4.374;2023-06-10T07:41:56;22.30;1.00
17178;DHT22;8704;52.006;4.374;2023-06-10T07:44:24;22.30;1.00
17178;DHT22;8704;52.006;4.374;2023-06-10T07:46:52;22.40;1.00
17178;DHT22;8704;52.006;4.374;2023-06-10T07:49:20;22.40;1.00
17178;DHT22;8704;52.006;4.374;2023-06-10T07:51:49;22.50;1.00
17178;DHT22;8704;52.006;4.374;2023-06-10T07:54:17;22.60;1.00
17178;DHT22;8704;52.006;4.374;2023-06-10T07:56:45;22.80;1.00
17178;DHT22;8704;52.006;4.374;2023-06-10T07:59:16;22.80;1.00
17178;DHT22;8704;52.006;4.374;2023-06-10T08:01:44;22.90;1.00
17178;DHT22;8704;52.006;4.374;2023-06-10T08:04:12;22.90;1.00
17178;DHT22;8704;52.006;4.374;2023-06-10T08:06:41;22.90;1.00
17178;DHT22;8704;52.006;4.374;2023-06-10T08:09:08;23.00;1.00
17178;DHT22;8704;52.006;4.374;2023-06-10T08:11:37;23.20;1.00
17178;DHT22;8704;52.006;4.374;2023-06-10T08:14:05;23.40;1.00
17178;DHT22;8704;52.006;4.374;2023-06-10T08:16:34;23.30;1.00
17178;DHT22;8704;52.006;4.374;2023-06-10T08:19:02;23.40;1.00
17178;DHT22;8704;52.006;4.374;2023-06-10T08:21:30;23.50;1.00
17178;DHT22;8704;52.006;4.374;2023-06-10T08:23:58;23.60;1.00
17178;DHT22;8704;52.006;4.374;2023-06-10T08:26:26;23.70;1.00
17178;DHT22;8704;52.006;4.374;2023-06-10T08:28:54;23.70;1.00
17178;DHT22;8704;52.006;4.374;2023-06-10T08:31:22;23.90;1.00
17178;DHT22;8704;52.006;4.374;2023-06-10T08:33:51;23.90;1.00
17178;DHT22;8704;52.006;4.374;2023-06-10T08:36:19;24.00;1.00
17178;DHT22;8704;52.006;4.374;2023-06-10T08:38:47;24.10;1.00
17178;DHT22;8704;52.006;4.374;2023-06-10T08:41:17;24.10;1.00
17178;DHT22;8704;52.006;4.374;2023-06-10T08:43:54;24.20;1.00
17178;DHT22;8704;52.006;4.374;2023-06-10T08:46:25;24.30;1.00
17178;DHT22;8704;52.006;4.374;2023-06-10T08:48:55;24.30;1.00
17178;DHT22;8704;52.006;4.374;2023-06-10T08:51:26;24.50;1.00
17178;DHT22;8704;52.006;4.374;2023-06-10T08:54:01;24.60;1.00
17178;DHT22;8704;52.006;4.374;2023-06-10T08:56:30;24.60;1.00
17178;DHT22;8704;52.006;4.374;2023-06-10T08:58:59;24.70;1.00
17178;DHT22;8704;52.006;4.374;2023-06-10T09:01:28;24.90;1.00
17178;DHT22;8704;52.006;4.374;2023-06-10T09:03:59;25.00;1.00
17178;DHT22;8704;52.006;4.374;2023-06-10T09:06:27;25.00;1.00
17178;DHT22;8704;52.006;4.374;2023-06-10T09:08:55;25.20;1.00
17178;DHT22;8704;52.006;4.374;2023-06-10T09:11:29;25.20;1.00
17178;DHT22;8704;52.006;4.374;2023-06-10T09:13:56;25.30;1.00
17178;DHT22;8704;52.006;4.374;2023-06-10T09:16:24;25.30;1.00
17178;DHT22;8704;52.006;4.374;2023-06-10T09:18:53;25.40;1.00
17178;DHT22;8704;52.006;4.374;2023-06-10T09:21:24;25.60;1.00
17178;DHT22;8704;52.006;4.374;2023-06-10T09:23:52;25.60;1.00
17178;DHT22;8704;52.006;4.374;2023-06-10T09:26:20;25.70;1.00
17178;DHT22;8704;52.006;4.374;2023-06-10T09:29:01;25.80;1.00
17178;DHT22;8704;52.006;4.374;2023-06-10T09:31:30;25.90;1.00
17178;DHT22;8704;52.006;4.374;2023-06-10T09:34:06;26.10;1.00
17178;DHT22;8704;52.006;4.374;2023-06-10T09:36:37;26.10;1.00
17178;DHT22;8704;52.006;4.374;2023-06-10T09:39:13;26.20;1.00
17178;DHT22;8704;52.006;4.374;2023-06-10T09:41:41;26.30;1.00
17178;DHT22;8704;52.006;4.374;2023-06-10T09:44:12;26.50;1.00
17178;DHT22;8704;52.006;4.374;2023-06-10T09:46:41;26.50;1.00
17178;DHT22;8704;52.006;4.374;2023-06-10T09:49:09;26.70;1.00
17178;DHT22;8704;52.006;4.374;2023-06-10T09:51:49;26.70;1.00
17178;DHT22;8704;52.006;4.374;2023-06-10T09:54:18;26.90;1.00
17178;DHT22;8704;52.006;4.374;2023-06-10T09:56:47;27.00;1.00
17178;DHT22;8704;52.006;4.374;2023-06-10T09:59:15;27.00;1.00
17178;DHT22;8704;52.006;4.374;2023-06-10T10:01:43;27.20;1.00
17178;DHT22;8704;52.006;4.374;2023-06-10T10:04:13;27.30;1.00
17178;DHT22;8704;52.006;4.374;2023-06-10T10:06:52;27.70;1.00
17178;DHT22;8704;52.006;4.374;2023-06-10T10:09:20;27.50;1.00
17178;DHT22;8704;52.006;4.374;2023-06-10T10:11:48;27.70;1.00
17178;DHT22;8704;52.006;4.374;2023-06-10T10:14:18;27.70;1.00
17178;DHT22;8704;52.006;4.374;2023-06-10T10:16:47;27.80;1.00
17178;DHT22;8704;52.006;4.374;2023-06-10T10:19:19;27.90;1.00
17178;DHT22;8704;52.006;4.374;2023-06-10T10:21:52;28.10;1.00
17178;DHT22;8704;52.006;4.374;2023-06-10T10:24:21;28.20;1.00
17178;DHT22;8704;52.006;4.374;2023-06-10T10:26:52;28.30;1.00
17178;DHT22;8704;52.006;4.374;2023-06-10T10:29:24;28.50;1.00
17178;DHT22;8704;52.006;4.374;2023-06-10T10:31:58;28.60;1.00
17178;DHT22;8704;52.006;4.374;2023-06-10T10:34:32;28.60;1.00
17178;DHT22;8704;52.006;4.374;2023-06-10T10:37:04;28.80;1.00
17178;DHT22;8704;52.006;4.374;2023-06-10T10:39:34;28.80;1.00
17178;DHT22;8704;52.006;4.374;2023-06-10T10:42:03;29.00;1.00
17178;DHT22;8704;52.006;4.374;2023-06-10T10:44:32;29.10;1.00
17178;DHT22;8704;52.006;4.374;2023-06-10T10:47:03;29.30;1.00
17178;DHT22;8704;52.006;4.374;2023-06-10T10:49:32;29.40;1.00
17178;DHT22;8704;52.006;4.374;2023-06-10T10:52:03;29.50;1.00
17178;DHT22;8704;52.006;4.374;2023-06-10T10:54:33;29.60;1.00
17178;DHT22;8704;52.006;4.374;2023-06-10T10:57:15;29.80;1.00
17178;DHT22;8704;52.006;4.374;2023-06-10T10:59:51;29.90;1.00
17178;DHT22;8704;52.006;4.374;2023-06-10T11:02:40;29.90;1.00
17178;DHT22;8704;52.006;4.374;2023-06-10T11:05:12;29.90;1.00
17178;DHT22;8704;52.006;4.374;2023-06-10T11:07:53;30.10;1.00
17178;DHT22;8704;52.006;4.374;2023-06-10T11:10:29;30.30;1.00
17178;DHT22;8704;52.006;4.374;2023-06-10T11:12:58;30.40;1.00
17178;DHT22;8704;52.006;4.374;2023-06-10T11:15:28;30.60;1.00
17178;DHT22;8704;52.006;4.374;2023-06-10T11:18:09;30.60;1.00
17178;DHT22;8704;52.006;4.374;2023-06-10T11:20:59;30.90;1.00
17178;DHT22;8704;52.006;4.374;2023-06-10T11:23:50;31.00;1.00
17178;DHT22;8704;52.006;4.374;2023-06-10T11:26:21;31.00;1.00
17178;DHT22;8704;52.006;4.374;2023-06-10T11:29:07;31.10;1.00
17178;DHT22;8704;52.006;4.374;2023-06-10T11:31:45;31.20;1.00
17178;DHT22;8704;52.006;4.374;2023-06-10T11:34:21;31.30;1.00
17178;DHT22;8704;52.006;4.374;2023-06-10T11:36:51;31.50;1.00
17178;DHT22;8704;52.006;4.374;2023-06-10T11:39:22;31.50;1.00
17178;DHT22;8704;52.006;4.374;2023-06-10T11:41:53;31.70;1.00
17178;DHT22;8704;52.006;4.374;2023-06-10T11:44:22;31.80;1.00
17178;DHT22;8704;52.006;4.374;2023-06-10T11:46:56;32.00;1.00
17178;DHT22;8704;52.006;4.374;2023-06-10T11:49:24;32.00;1.00
17178;DHT22;8704;52.006;4.374;2023-06-10T11:51:52;32.20;1.00
17178;DHT22;8704;52.006;4.374;2023-06-10T11:54:21;32.30;1.00
17178;DHT22;8704;52.006;4.374;2023-06-10T11:56:49;32.60;1.00
17178;DHT22;8704;52.006;4.374;2023-06-10T11:59:18;32.90;1.00
17178;DHT22;8704;52.006;4.374;2023-06-10T12:01:46;33.00;1.00
17178;DHT22;8704;52.006;4.374;2023-06-10T12:04:15;33.00;1.00
17178;DHT22;8704;52.006;4.374;2023-06-10T12:06:46;33.00;1.00
17178;DHT22;8704;52.006;4.374;2023-06-10T12:09:16;33.00;1.00
17178;DHT22;8704;52.006;4.374;2023-06-10T12:11:55;32.90;1.00
17178;DHT22;8704;52.006;4.374;2023-06-10T12:14:51;33.10;1.00
17178;DHT22;8704;52.006;4.374;2023-06-10T12:17:35;33.30;1.00
17178;DHT22;8704;52.006;4.374;2023-06-10T12:20:06;33.40;1.00
17178;DHT22;8704;52.006;4.374;2023-06-10T12:22:39;33.60;1.00
17178;DHT22;8704;52.006;4.374;2023-06-10T12:25:08;33.70;1.00
17178;DHT22;8704;52.006;4.374;2023-06-10T12:27:40;33.70;1.00
17178;DHT22;8704;52.006;4.374;2023-06-10T12:30:19;33.80;1.00
17178;DHT22;8704;52.006;4.374;2023-06-10T12:32:47;33.70;1.00
17178;DHT22;8704;52.006;4.374;2023-06-10T12:35:17;34.00;1.00
17178;DHT22;8704;52.006;4.374;2023-06-10T12:37:55;34.20;1.00
17178;DHT22;8704;52.006;4.374;2023-06-10T12:40:26;34.00;1.00
17178;DHT22;8704;52.006;4.374;2023-06-10T12:42:56;34.40;1.00
17178;DHT22;8704;52.006;4.374;2023-06-10T12:45:27;34.70;1.00
17178;DHT22;8704;52.006;4.374;2023-06-10T12:48:07;34.80;1.00
17178;DHT22;8704;52.006;4.374;2023-06-10T12:50:37;35.00;1.00
17178;DHT22;8704;52.006;4.374;2023-06-10T12:53:06;34.90;1.00
17178;DHT22;8704;52.006;4.374;2023-06-10T12:55:34;35.00;1.00
17178;DHT22;8704;52.006;4.374;2023-06-10T12:58:03;35.20;1.00
17178;DHT22;8704;52.006;4.374;2023-06-10T13:00:32;35.20;1.00
17178;DHT22;8704;52.006;4.374;2023-06-10T13:03:02;35.40;1.00
17178;DHT22;8704;52.006;4.374;2023-06-10T13:05:32;35.60;1.00
17178;DHT22;8704;52.006;4.374;2023-06-10T13:08:00;35.60;1.00
17178;DHT22;8704;52.006;4.374;2023-06-10T13:10:28;35.70;1.00
17178;DHT22;8704;52.006;4.374;2023-06-10T13:12:57;35.60;1.00
17178;DHT22;8704;52.006;4.374;2023-06-10T13:15:27;35.80;1.00
17178;DHT22;8704;52.006;4.374;2023-06-10T13:17:55;36.00;1.00
17178;DHT22;8704;52.006;4.374;2023-06-10T13:20:23;36.20;1.00
17178;DHT22;8704;52.006;4.374;2023-06-10T13:22:52;36.30;1.00
17178;DHT22;8704;52.006;4.374;2023-06-10T13:25:20;36.10;1.00
17178;DHT22;8704;52.006;4.374;2023-06-10T13:27:48;36.50;1.00
17178;DHT22;8704;52.006;4.374;2023-06-10T13:30:16;36.50;1.00
17178;DHT22;8704;52.006;4.374;2023-06-10T13:32:46;36.60;1.00
17178;DHT22;8704;52.006;4.374;2023-06-10T13:35:14;36.50;1.00
17178;DHT22;8704;52.006;4.374;2023-06-10T13:37:42;36.70;1.00
17178;DHT22;8704;52.006;4.374;2023-06-10T13:40:10;37.00;1.00
17178;DHT22;8704;52.006;4.374;2023-06-10T13:42:38;37.00;1.00
17178;DHT22;8704;52.006;4.374;2023-06-10T13:45:07;37.40;1.00
17178;DHT22;8704;52.006;4.374;2023-06-10T13:47:36;37.90;1.00
17178;DHT22;8704;52.006;4.374;2023-06-10T13:50:07;37.90;1.00
17178;DHT22;8704;52.006;4.374;2023-06-10T13:52:36;38.20;1.00
17178;DHT22;8704;52.006;4.374;2023-06-10T13:55:04;38.40;1.00
17178;DHT22;8704;52.006;4.374;2023-06-10T13:57:33;38.20;1.00
17178;DHT22;8704;52.006;4.374;2023-06-10T14:00:01;38.70;1.00
17178;DHT22;8704;52.006;4.374;2023-06-10T14:02:29;38.80;1.00
17178;DHT22;8704;52.006;4.374;2023-06-10T14:04:57;38.80;1.00
17178;DHT22;8704;52.006;4.374;2023-06-10T14:07:26;38.60;1.00
17178;DHT22;8704;52.006;4.374;2023-06-10T14:09:54;38.90;1.00
17178;DHT22;8704;52.006;4.374;2023-06-10T14:12:22;39.20;1.00
17178;DHT22;8704;52.006;4.374;2023-06-10T14:14:51;39.60;1.00
17178;DHT22;8704;52.006;4.374;2023-06-10T14:17:19;39.90;1.00
17178;DHT22;8704;52.006;4.374;2023-06-10T14:19:47;40.10;1.00
17178;DHT22;8704;52.006;4.374;2023-06-10T14:22:15;40.00;1.00
17178;DHT22;8704;52.006;4.374;2023-06-10T14:24:44;40.40;1.00
17178;DHT22;8704;52.006;4.374;2023-06-10T14:27:14;40.60;1.00
17178;DHT22;8704;52.006;4.374;2023-06-10T14:29:42;40.40;1.00
17178;DHT22;8704;52.006;4.374;2023-06-10T14:32:10;40.90;1.00
17178;DHT22;8704;52.006;4.374;2023-06-10T14:34:38;41.00;1.00
17178;DHT22;8704;52.006;4.374;2023-06-10T14:37:06;41.20;1.00
17178;DHT22;8704;52.006;4.374;2023-06-10T14:39:34;41.40;1.00
17178;DHT22;8704;52.006;4.374;2023-06-10T14:42:05;41.50;1.00
17178;DHT22;8704;52.006;4.374;2023-06-10T14:44:33;41.50;1.00
17178;DHT22;8704;52.006;4.374;2023-06-10T14:47:01;41.70;1.00
17178;DHT22;8704;52.006;4.374;2023-06-10T14:49:31;41.80;1.00
17178;DHT22;8704;52.006;4.374;2023-06-10T14:51:59;41.60;1.00
17178;DHT22;8704;52.006;4.374;2023-06-10T14:54:27;41.30;1.00
17178;DHT22;8704;52.006;4.374;2023-06-10T14:56:55;41.70;1.00
17178;DHT22;8704;52.006;4.374;2023-06-10T14:59:25;41.90;1.00
17178;DHT22;8704;52.006;4.374;2023-06-10T15:01:53;41.90;1.00
17178;DHT22;8704;52.006;4.374;2023-06-10T15:04:21;42.00;1.00
17178;DHT22;8704;52.006;4.374;2023-06-10T15:06:50;42.10;1.00
17178;DHT22;8704;52.006;4.374;2023-06-10T15:09:19;41.50;1.00
17178;DHT22;8704;52.006;4.374;2023-06-10T15:11:47;41.70;1.00
17178;DHT22;8704;52.006;4.374;2023-06-10T15:14:15;41.60;1.00
17178;DHT22;8704;52.006;4.374;2023-06-10T15:16:44;41.30;1.00
17178;DHT22;8704;52.006;4.374;2023-06-10T15:19:13;41.50;1.00
17178;DHT22;8704;52.006;4.374;2023-06-10T15:21:41;41.30;1.00
17178;DHT22;8704;52.006;4.374;2023-06-10T15:24:09;41.80;1.00
17178;DHT22;8704;52.006;4.374;2023-06-10T15:26:37;42.10;1.00
17178;DHT22;8704;52.006;4.374;2023-06-10T15:29:05;42.30;1.00
17178;DHT22;8704;52.006;4.374;2023-06-10T15:31:33;42.40;1.00
17178;DHT22;8704;52.006;4.374;2023-06-10T15:34:03;42.50;1.00
17178;DHT22;8704;52.006;4.374;2023-06-10T15:36:33;42.70;1.00
17178;DHT22;8704;52.006;4.374;2023-06-10T15:39:04;42.40;1.00
17178;DHT22;8704;52.006;4.374;2023-06-10T15:41:33;42.40;1.00
17178;DHT22;8704;52.006;4.374;2023-06-10T15:44:02;42.50;1.00
17178;DHT22;8704;52.006;4.374;2023-06-10T15:46:30;42.30;1.00
17178;DHT22;8704;52.006;4.374;2023-06-10T15:48:58;42.20;1.00
17178;DHT22;8704;52.006;4.374;2023-06-10T15:51:27;42.40;1.00
17178;DHT22;8704;52.006;4.374;2023-06-10T15:53:55;42.50;1.00
17178;DHT22;8704;52.006;4.374;2023-06-10T15:56:23;42.80;1.00
17178;DHT22;8704;52.006;4.374;2023-06-10T15:58:52;42.70;1.00
17178;DHT22;8704;52.006;4.374;2023-06-10T16:01:20;42.70;1.00
17178;DHT22;8704;52.006;4.374;2023-06-10T16:03:48;42.70;1.00
17178;DHT22;8704;52.006;4.374;2023-06-10T16:06:16;42.40;1.00
17178;DHT22;8704;52.006;4.374;2023-06-10T16:08:45;42.50;1.00
17178;DHT22;8704;52.006;4.374;2023-06-10T16:11:14;42.40;1.00
17178;DHT22;8704;52.006;4.374;2023-06-10T16:13:42;42.50;1.00
17178;DHT22;8704;52.006;4.374;2023-06-10T16:16:10;42.00;1.00